sensor_id;sensor_type;location;lat;lon;timestamp;P1;durP1;ratioP1;P2;durP2;ratioP2
26504;SDS011;19493;48.042;7.584;2022-07-29T00:00:13;11.45;;;3.60;;
26504;SDS011;19493;48.042;7.584;2022-07-29T00:02:39;14.30;;;3.35;;
26504;SDS011;19493;48.042;7.584;2022-07-29T00:05:04;16.75;;;4.75;;
26504;SDS011;19493;48.042;7.584;2022-07-29T00:07:30;10.40;;;3.25;;
26504;SDS011;19493;48.042;7.584;2022-07-29T00:09:56;15.55;;;4.10;;
26504;SDS011;19493;48.042;7.584;2022-07-29T00:12:22;18.52;;;3.40;;
26504;SDS011;19493;48.042;7.584;2022-07-29T00:14:48;1999.90;;;999.90;;
26504;SDS011;19493;48.042;7.584;2022-07-29T00:17:14;10.77;;;2.83;;
26504;SDS011;19493;48.042;7.584;2022-07-29T00:19:40;1452.75;;;109.82;;
26504;SDS011;19493;48.042;7.584;2022-07-29T00:22:05;62.90;;;43.20;;
26504;SDS011;19493;48.042;7.584;2022-07-29T00:24:31;586.70;;;291.55;;
26504;SDS011;19493;48.042;7.584;2022-07-29T00:26:56;1999.90;;;999.90;;
26504;SDS011;19493;48.042;7.584;2022-07-29T00:29:22;1999.90;;;999.90;;
26504;SDS011;19493;48.042;7.584;2022-07-29T00:31:48;1999.90;;;999.90;;
26504;SDS011;19493;48.042;7.584;2022-07-29T00:34:13;1999.90;;;999.90;;
26504;SDS011;19493;48.042;7.584;2022-07-29T00:36:58;1999.90;;;999.90;;
26504;SDS011;19493;48.042;7.584;2022-07-29T00:39:23;1999.90;;;999.90;;
26504;SDS011;19493;48.042;7.584;2022-07-29T00:41:49;1999.90;;;999.90;;
26504;SDS011;19493;48.042;7.584;2022-07-29T00:44:15;1999.90;;;999.90;;
26504;SDS011;19493;48.042;7.584;2022-07-29T00:46:41;1999.90;;;999.90;;
26504;SDS011;19493;48.042;7.584;2022-07-29T00:49:07;1999.90;;;999.90;;
26504;SDS011;19493;48.042;7.584;2022-07-29T00:51:36;1999.90;;;999.90;;
26504;SDS011;19493;48.042;7.584;2022-07-29T00:54:02;1999.90;;;999.90;;
26504;SDS011;19493;48.042;7.584;2022-07-29T00:56:30;1999.90;;;999.90;;
26504;SDS011;19493;48.042;7.584;2022-07-29T00:58:56;1999.90;;;999.90;;
26504;SDS011;19493;48.042;7.584;2022-07-29T01:01:22;1999.90;;;999.90;;
26504;SDS011;19493;48.042;7.584;2022-07-29T01:03:48;1999.90;;;999.90;;
26504;SDS011;19493;48.042;7.584;2022-07-29T01:06:15;1999.90;;;999.90;;
26504;SDS011;19493;48.042;7.584;2022-07-29T01:08:41;1999.90;;;999.90;;
26504;SDS011;19493;48.042;7.584;2022-07-29T01:11:08;1999.90;;;999.90;;
26504;SDS011;19493;48.042;7.584;2022-07-29T01:13:34;1999.90;;;999.90;;
26504;SDS011;19493;48.042;7.584;2022-07-29T01:16:03;1999.90;;;999.90;;
26504;SDS011;19493;48.042;7.584;2022-07-29T01:18:37;1999.90;;;999.90;;
26504;SDS011;19493;48.042;7.584;2022-07-29T01:27:38;1999.90;;;999.90;;
26504;SDS011;19493;48.042;7.584;2022-07-29T01:30:06;1999.90;;;999.90;;
26504;SDS011;19493;48.042;7.584;2022-07-29T01:32:33;1999.90;;;999.90;;
26504;SDS011;19493;48.042;7.584;2022-07-29T01:37:37;1999.90;;;999.90;;
26504;SDS011;19493;48.042;7.584;2022-07-29T01:40:24;1999.90;;;999.90;;
26504;SDS011;19493;48.042;7.584;2022-07-29T01:42:54;1999.90;;;999.90;;
26504;SDS011;19493;48.042;7.584;2022-07-29T01:50:30;1999.90;;;999.90;;
26504;SDS011;19493;48.042;7.584;2022-07-29T01:53:02;1999.90;;;999.90;;
26504;SDS011;19493;48.042;7.584;2022-07-29T01:55:32;1999.90;;;999.90;;
26504;SDS011;19493;48.042;7.584;2022-07-29T01:58:03;1999.90;;;999.90;;
26504;SDS011;19493;48.042;7.584;2022-07-29T02:00:31;1999.90;;;999.90;;
26504;SDS011;19493;48.042;7.584;2022-07-29T02:02:58;1999.90;;;999.90;;
26504;SDS011;19493;48.042;7.584;2022-07-29T02:05:38;1999.90;;;999.90;;
26504;SDS011;19493;48.042;7.584;2022-07-29T02:08:07;1999.90;;;999.90;;
26504;SDS011;19493;48.042;7.584;2022-07-29T02:10:34;1999.90;;;999.90;;
26504;SDS011;19493;48.042;7.584;2022-07-29T02:13:03;1999.90;;;999.90;;
26504;SDS011;19493;48.042;7.584;2022-07-29T02:15:32;1999.90;;;999.90;;
26504;SDS011;19493;48.042;7.584;2022-07-29T02:18:02;1999.90;;;999.90;;
26504;SDS011;19493;48.042;7.584;2022-07-29T02:20:32;1999.90;;;999.90;;
26504;SDS011;19493;48.042;7.584;2022-07-29T02:22:59;1999.90;;;999.90;;
26504;SDS011;19493;48.042;7.584;2022-07-29T02:25:27;1999.90;;;999.90;;
26504;SDS011;19493;48.042;7.584;2022-07-29T02:27:54;1999.90;;;999.90;;
26504;SDS011;19493;48.042;7.584;2022-07-29T02:30:21;1999.90;;;999.90;;
26504;SDS011;19493;48.042;7.584;2022-07-29T02:32:48;1999.90;;;999.90;;
26504;SDS011;19493;48.042;7.584;2022-07-29T02:35:15;1999.90;;;999.90;;
26504;SDS011;19493;48.042;7.584;2022-07-29T02:37:42;1999.90;;;999.90;;
26504;SDS011;19493;48.042;7.584;2022-07-29T02:40:10;1999.90;;;999.90;;
26504;SDS011;19493;48.042;7.584;2022-07-29T02:42:39;1999.90;;;999.90;;
26504;SDS011;19493;48.042;7.584;2022-07-29T02:45:07;1999.90;;;999.90;;
26504;SDS011;19493;48.042;7.584;2022-07-29T02:47:41;1999.90;;;999.90;;
26504;SDS011;19493;48.042;7.584;2022-07-29T02:50:20;1999.90;;;999.90;;
26504;SDS011;19493;48.042;7.584;2022-07-29T02:52:58;1999.90;;;999.90;;
26504;SDS011;19493;48.042;7.584;2022-07-29T02:55:46;1999.90;;;999.90;;
26504;SDS011;19493;48.042;7.584;2022-07-29T02:58:29;1999.90;;;999.90;;
26504;SDS011;19493;48.042;7.584;2022-07-29T03:00:59;1999.90;;;999.90;;
26504;SDS011;19493;48.042;7.584;2022-07-29T03:03:29;1999.90;;;999.90;;
26504;SDS011;19493;48.042;7.584;2022-07-29T03:05:59;1999.90;;;999.90;;
26504;SDS011;19493;48.042;7.584;2022-07-29T03:08:25;1999.90;;;999.90;;
26504;SDS011;19493;48.042;7.584;2022-07-29T03:10:52;1999.90;;;999.90;;
26504;SDS011;19493;48.042;7.584;2022-07-29T03:13:19;1999.90;;;999.90;;
26504;SDS011;19493;48.042;7.584;2022-07-29T03:15:45;1999.90;;;999.90;;
26504;SDS011;19493;48.042;7.584;2022-07-29T03:18:12;1999.90;;;999.90;;
26504;SDS011;19493;48.042;7.584;2022-07-29T03:20:38;1999.90;;;999.90;;
26504;SDS011;19493;48.042;7.584;2022-07-29T03:23:04;1999.90;;;999.90;;
26504;SDS011;19493;48.042;7.584;2022-07-29T03:25:30;1999.90;;;999.90;;
26504;SDS011;19493;48.042;7.584;2022-07-29T03:27:56;1999.90;;;999.90;;
26504;SDS011;19493;48.042;7.584;2022-07-29T03:30:22;1999.90;;;999.90;;
26504;SDS011;19493;48.042;7.584;2022-07-29T03:32:48;1999.90;;;999.90;;
26504;SDS011;19493;48.042;7.584;2022-07-29T03:35:15;1999.90;;;999.90;;
26504;SDS011;19493;48.042;7.584;2022-07-29T03:37:44;1999.90;;;999.90;;
26504;SDS011;19493;48.042;7.584;2022-07-29T03:40:10;1999.90;;;999.90;;
26504;SDS011;19493;48.042;7.584;2022-07-29T03:42:42;1999.90;;;999.90;;
26504;SDS011;19493;48.042;7.584;2022-07-29T03:45:10;1999.90;;;999.90;;
26504;SDS011;19493;48.042;7.584;2022-07-29T03:47:45;1999.90;;;999.90;;
26504;SDS011;19493;48.042;7.584;2022-07-29T03:50:16;1999.90;;;999.90;;
26504;SDS011;19493;48.042;7.584;2022-07-29T03:52:44;1999.90;;;999.90;;
26504;SDS011;19493;48.042;7.584;2022-07-29T03:55:11;1999.90;;;999.90;;
26504;SDS011;19493;48.042;7.584;2022-07-29T03:57:37;1999.90;;;999.90;;
26504;SDS011;19493;48.042;7.584;2022-07-29T04:00:04;1999.90;;;999.90;;
26504;SDS011;19493;48.042;7.584;2022-07-29T04:02:32;1999.90;;;999.90;;
26504;SDS011;19493;48.042;7.584;2022-07-29T04:04:58;1999.90;;;999.90;;
26504;SDS011;19493;48.042;7.584;2022-07-29T04:07:24;1999.90;;;999.90;;
26504;SDS011;19493;48.042;7.584;2022-07-29T04:09:49;1999.90;;;999.90;;
26504;SDS011;19493;48.042;7.584;2022-07-29T04:12:15;1999.90;;;999.90;;
26504;SDS011;19493;48.042;7.584;2022-07-29T04:14:40;1999.90;;;999.90;;
26504;SDS011;19493;48.042;7.584;2022-07-29T04:17:06;1999.90;;;999.90;;
26504;SDS011;19493;48.042;7.584;2022-07-29T04:19:32;1999.90;;;999.90;;
26504;SDS011;19493;48.042;7.584;2022-07-29T04:21:58;1999.90;;;999.90;;
26504;SDS011;19493;48.042;7.584;2022-07-29T04:24:24;1999.90;;;999.90;;
26504;SDS011;19493;48.042;7.584;2022-07-29T04:26:50;1999.90;;;999.90;;
26504;SDS011;19493;48.042;7.584;2022-07-29T04:29:16;1999.90;;;999.90;;
26504;SDS011;19493;48.042;7.584;2022-07-29T04:31:41;1999.90;;;999.90;;
26504;SDS011;19493;48.042;7.584;2022-07-29T04:34:07;1999.90;;;999.90;;
26504;SDS011;19493;48.042;7.584;2022-07-29T04:36:33;1999.90;;;999.90;;
26504;SDS011;19493;48.042;7.584;2022-07-29T04:38:59;1999.90;;;999.90;;
26504;SDS011;19493;48.042;7.584;2022-07-29T04:41:26;1999.90;;;999.90;;
26504;SDS011;19493;48.042;7.584;2022-07-29T04:43:52;1999.90;;;999.90;;
26504;SDS011;19493;48.042;7.584;2022-07-29T04:46:17;1999.90;;;999.90;;
26504;SDS011;19493;48.042;7.584;2022-07-29T04:48:44;1999.90;;;999.90;;
26504;SDS011;19493;48.042;7.584;2022-07-29T04:51:11;1999.90;;;999.90;;
26504;SDS011;19493;48.042;7.584;2022-07-29T04:53:36;1999.90;;;999.90;;
26504;SDS011;19493;48.042;7.584;2022-07-29T04:56:02;1999.90;;;999.90;;
26504;SDS011;19493;48.042;7.584;2022-07-29T04:58:28;1999.90;;;999.90;;
26504;SDS011;19493;48.042;7.584;2022-07-29T05:00:53;1999.90;;;999.90;;
26504;SDS011;19493;48.042;7.584;2022-07-29T05:03:19;1999.90;;;999.90;;
26504;SDS011;19493;48.042;7.584;2022-07-29T05:05:44;1999.90;;;999.90;;
26504;SDS011;19493;48.042;7.584;2022-07-29T05:08:10;1999.90;;;999.90;;
26504;SDS011;19493;48.042;7.584;2022-07-29T05:10:36;1999.90;;;999.90;;
26504;SDS011;19493;48.042;7.584;2022-07-29T05:13:03;1999.90;;;999.90;;
26504;SDS011;19493;48.042;7.584;2022-07-29T05:15:30;1999.90;;;999.90;;
26504;SDS011;19493;48.042;7.584;2022-07-29T05:17:56;1999.90;;;999.90;;
26504;SDS011;19493;48.042;7.584;2022-07-29T05:20:22;1999.90;;;999.90;;
26504;SDS011;19493;48.042;7.584;2022-07-29T05:22:51;1999.90;;;999.90;;
26504;SDS011;19493;48.042;7.584;2022-07-29T05:25:16;1999.90;;;999.90;;
26504;SDS011;19493;48.042;7.584;2022-07-29T05:27:42;1999.90;;;999.90;;
26504;SDS011;19493;48.042;7.584;2022-07-29T05:30:08;1999.90;;;999.90;;
26504;SDS011;19493;48.042;7.584;2022-07-29T05:32:34;1999.90;;;999.90;;
26504;SDS011;19493;48.042;7.584;2022-07-29T05:34:59;1999.90;;;999.90;;
26504;SDS011;19493;48.042;7.584;2022-07-29T05:37:25;1999.90;;;999.90;;
26504;SDS011;19493;48.042;7.584;2022-07-29T05:39:50;1999.90;;;999.90;;
26504;SDS011;19493;48.042;7.584;2022-07-29T05:42:16;1999.90;;;999.90;;
26504;SDS011;19493;48.042;7.584;2022-07-29T05:44:41;1999.90;;;999.90;;
26504;SDS011;19493;48.042;7.584;2022-07-29T05:47:07;1999.90;;;999.90;;
26504;SDS011;19493;48.042;7.584;2022-07-29T05:49:33;1999.90;;;999.90;;
26504;SDS011;19493;48.042;7.584;2022-07-29T05:51:58;1999.90;;;999.90;;
26504;SDS011;19493;48.042;7.584;2022-07-29T05:54:24;1999.90;;;999.90;;
26504;SDS011;19493;48.042;7.584;2022-07-29T05:56:50;1999.90;;;999.90;;
26504;SDS011;19493;48.042;7.584;2022-07-29T05:59:16;1999.90;;;999.90;;
26504;SDS011;19493;48.042;7.584;2022-07-29T06:01:41;1999.90;;;999.90;;
26504;SDS011;19493;48.042;7.584;2022-07-29T06:04:07;1999.90;;;999.90;;
26504;SDS011;19493;48.042;7.584;2022-07-29T06:06:33;1999.90;;;999.90;;
26504;SDS011;19493;48.042;7.584;2022-07-29T06:09:00;1999.90;;;999.90;;
26504;SDS011;19493;48.042;7.584;2022-07-29T06:11:26;1999.90;;;999.90;;
26504;SDS011;19493;48.042;7.584;2022-07-29T06:13:52;1999.90;;;999.90;;
26504;SDS011;19493;48.042;7.584;2022-07-29T06:16:18;1999.90;;;999.90;;
26504;SDS011;19493;48.042;7.584;2022-07-29T06:18:43;13.85;;;1.70;;
26504;SDS011;19493;48.042;7.584;2022-07-29T06:21:09;14.73;;;1.70;;
26504;SDS011;19493;48.042;7.584;2022-07-29T06:23:36;7.15;;;1.90;;
26504;SDS011;19493;48.042;7.584;2022-07-29T06:26:02;3.35;;;1.20;;
26504;SDS011;19493;48.042;7.584;2022-07-29T06:28:28;7.25;;;1.73;;
26504;SDS011;19493;48.042;7.584;2022-07-29T06:30:54;3.95;;;1.20;;
26504;SDS011;19493;48.042;7.584;2022-07-29T06:33:19;3.45;;;1.13;;
26504;SDS011;19493;48.042;7.584;2022-07-29T06:35:45;8.77;;;1.20;;
26504;SDS011;19493;48.042;7.584;2022-07-29T06:38:12;4.05;;;1.48;;
26504;SDS011;19493;48.042;7.584;2022-07-29T06:40:42;5.25;;;1.42;;
26504;SDS011;19493;48.042;7.584;2022-07-29T06:43:28;4.63;;;1.50;;
26504;SDS011;19493;48.042;7.584;2022-07-29T06:46:06;13.23;;;1.52;;
26504;SDS011;19493;48.042;7.584;2022-07-29T06:48:34;4.35;;;1.73;;
26504;SDS011;19493;48.042;7.584;2022-07-29T06:51:01;4.53;;;1.27;;
26504;SDS011;19493;48.042;7.584;2022-07-29T06:53:27;7.35;;;1.27;;
26504;SDS011;19493;48.042;7.584;2022-07-29T06:55:53;3.97;;;1.52;;
26504;SDS011;19493;48.042;7.584;2022-07-29T06:58:19;4.10;;;1.65;;
26504;SDS011;19493;48.042;7.584;2022-07-29T07:00:48;11.82;;;1.77;;
26504;SDS011;19493;48.042;7.584;2022-07-29T07:03:14;14.65;;;1.88;;
26504;SDS011;19493;48.042;7.584;2022-07-29T07:05:40;6.00;;;1.35;;
26504;SDS011;19493;48.042;7.584;2022-07-29T07:08:06;19.90;;;1.90;;
26504;SDS011;19493;48.042;7.584;2022-07-29T07:10:32;2.88;;;1.23;;
26504;SDS011;19493;48.042;7.584;2022-07-29T07:12:57;3.67;;;1.40;;
26504;SDS011;19493;48.042;7.584;2022-07-29T07:15:24;5.38;;;1.98;;
26504;SDS011;19493;48.042;7.584;2022-07-29T07:17:49;9.05;;;1.65;;
26504;SDS011;19493;48.042;7.584;2022-07-29T07:20:15;6.10;;;1.75;;
26504;SDS011;19493;48.042;7.584;2022-07-29T07:22:42;8.75;;;2.00;;
26504;SDS011;19493;48.042;7.584;2022-07-29T07:25:08;4.13;;;1.42;;
26504;SDS011;19493;48.042;7.584;2022-07-29T07:27:34;18.42;;;1.75;;
26504;SDS011;19493;48.042;7.584;2022-07-29T07:30:00;7.90;;;1.50;;
26504;SDS011;19493;48.042;7.584;2022-07-29T07:32:26;8.05;;;2.17;;
26504;SDS011;19493;48.042;7.584;2022-07-29T07:34:52;4.95;;;2.03;;
26504;SDS011;19493;48.042;7.584;2022-07-29T07:37:17;3.63;;;1.50;;
26504;SDS011;19493;48.042;7.584;2022-07-29T07:39:45;7.45;;;2.33;;
26504;SDS011;19493;48.042;7.584;2022-07-29T07:42:11;4.55;;;1.70;;
26504;SDS011;19493;48.042;7.584;2022-07-29T07:44:37;4.68;;;1.58;;
26504;SDS011;19493;48.042;7.584;2022-07-29T07:47:03;5.13;;;1.55;;
26504;SDS011;19493;48.042;7.584;2022-07-29T07:49:29;4.45;;;1.95;;
26504;SDS011;19493;48.042;7.584;2022-07-29T07:51:55;11.00;;;1.95;;
26504;SDS011;19493;48.042;7.584;2022-07-29T07:54:21;4.93;;;1.52;;
26504;SDS011;19493;48.042;7.584;2022-07-29T07:56:46;4.88;;;1.75;;
26504;SDS011;19493;48.042;7.584;2022-07-29T07:59:14;5.30;;;1.88;;
26504;SDS011;19493;48.042;7.584;2022-07-29T08:01:40;5.10;;;1.80;;
26504;SDS011;19493;48.042;7.584;2022-07-29T08:04:06;12.65;;;2.05;;
26504;SDS011;19493;48.042;7.584;2022-07-29T08:06:32;8.02;;;1.92;;
26504;SDS011;19493;48.042;7.584;2022-07-29T08:08:59;11.07;;;1.77;;
26504;SDS011;19493;48.042;7.584;2022-07-29T08:11:25;6.22;;;1.92;;
26504;SDS011;19493;48.042;7.584;2022-07-29T08:13:51;3.38;;;1.42;;
26504;SDS011;19493;48.042;7.584;2022-07-29T08:16:17;4.80;;;2.05;;
26504;SDS011;19493;48.042;7.584;2022-07-29T08:18:43;4.85;;;1.70;;
26504;SDS011;19493;48.042;7.584;2022-07-29T08:21:10;6.65;;;1.80;;
26504;SDS011;19493;48.042;7.584;2022-07-29T08:23:36;5.40;;;1.80;;
26504;SDS011;19493;48.042;7.584;2022-07-29T08:26:07;3.10;;;1.63;;
26504;SDS011;19493;48.042;7.584;2022-07-29T08:28:36;5.82;;;1.80;;
26504;SDS011;19493;48.042;7.584;2022-07-29T08:31:07;6.03;;;2.03;;
26504;SDS011;19493;48.042;7.584;2022-07-29T08:33:33;6.35;;;2.03;;
26504;SDS011;19493;48.042;7.584;2022-07-29T08:35:59;6.45;;;1.65;;
26504;SDS011;19493;48.042;7.584;2022-07-29T08:38:24;6.03;;;1.90;;
26504;SDS011;19493;48.042;7.584;2022-07-29T08:40:51;4.30;;;1.48;;
26504;SDS011;19493;48.042;7.584;2022-07-29T08:43:18;5.30;;;1.95;;
26504;SDS011;19493;48.042;7.584;2022-07-29T08:45:45;7.10;;;2.08;;
26504;SDS011;19493;48.042;7.584;2022-07-29T08:48:13;2.97;;;1.25;;
26504;SDS011;19493;48.042;7.584;2022-07-29T08:50:41;3.85;;;1.60;;
26504;SDS011;19493;48.042;7.584;2022-07-29T08:53:13;8.48;;;2.47;;
26504;SDS011;19493;48.042;7.584;2022-07-29T08:55:43;10.20;;;1.88;;
26504;SDS011;19493;48.042;7.584;2022-07-29T08:58:14;4.93;;;1.75;;
26504;SDS011;19493;48.042;7.584;2022-07-29T09:00:54;9.95;;;1.48;;
26504;SDS011;19493;48.042;7.584;2022-07-29T09:03:22;10.48;;;1.70;;
26504;SDS011;19493;48.042;7.584;2022-07-29T09:05:49;6.68;;;1.52;;
26504;SDS011;19493;48.042;7.584;2022-07-29T09:08:16;3.85;;;1.42;;
26504;SDS011;19493;48.042;7.584;2022-07-29T09:10:42;2.92;;;1.42;;
26504;SDS011;19493;48.042;7.584;2022-07-29T09:13:08;3.10;;;1.45;;
26504;SDS011;19493;48.042;7.584;2022-07-29T09:15:34;3.38;;;1.45;;
26504;SDS011;19493;48.042;7.584;2022-07-29T09:18:00;5.10;;;1.70;;
26504;SDS011;19493;48.042;7.584;2022-07-29T09:20:27;10.73;;;1.88;;
26504;SDS011;19493;48.042;7.584;2022-07-29T09:23:12;4.18;;;1.60;;
26504;SDS011;19493;48.042;7.584;2022-07-29T09:25:39;5.85;;;2.25;;
26504;SDS011;19493;48.042;7.584;2022-07-29T09:28:15;5.15;;;1.30;;
26504;SDS011;19493;48.042;7.584;2022-07-29T09:33:23;5.20;;;1.85;;
26504;SDS011;19493;48.042;7.584;2022-07-29T09:36:05;8.68;;;1.45;;
26504;SDS011;19493;48.042;7.584;2022-07-29T09:38:32;6.57;;;1.90;;
26504;SDS011;19493;48.042;7.584;2022-07-29T09:40:59;5.30;;;1.92;;
26504;SDS011;19493;48.042;7.584;2022-07-29T09:43:26;3.38;;;1.25;;
26504;SDS011;19493;48.042;7.584;2022-07-29T09:45:51;9.82;;;1.88;;
26504;SDS011;19493;48.042;7.584;2022-07-29T09:48:18;6.45;;;1.50;;
26504;SDS011;19493;48.042;7.584;2022-07-29T09:50:46;5.57;;;1.63;;
26504;SDS011;19493;48.042;7.584;2022-07-29T09:56:00;5.90;;;1.58;;
26504;SDS011;19493;48.042;7.584;2022-07-29T09:58:26;8.60;;;1.90;;
26504;SDS011;19493;48.042;7.584;2022-07-29T10:00:53;3.85;;;1.70;;
26504;SDS011;19493;48.042;7.584;2022-07-29T10:03:19;3.58;;;1.65;;
26504;SDS011;19493;48.042;7.584;2022-07-29T10:05:48;7.32;;;1.83;;
26504;SDS011;19493;48.042;7.584;2022-07-29T10:08:30;3.20;;;1.48;;
26504;SDS011;19493;48.042;7.584;2022-07-29T10:11:08;6.35;;;2.00;;
26504;SDS011;19493;48.042;7.584;2022-07-29T10:13:38;8.93;;;2.10;;
26504;SDS011;19493;48.042;7.584;2022-07-29T10:16:05;4.70;;;1.60;;
26504;SDS011;19493;48.042;7.584;2022-07-29T10:18:31;4.60;;;1.98;;
26504;SDS011;19493;48.042;7.584;2022-07-29T10:20:58;3.33;;;1.77;;
26504;SDS011;19493;48.042;7.584;2022-07-29T10:23:26;10.10;;;1.88;;
26504;SDS011;19493;48.042;7.584;2022-07-29T10:25:54;9.45;;;2.17;;
26504;SDS011;19493;48.042;7.584;2022-07-29T10:28:20;7.93;;;2.03;;
26504;SDS011;19493;48.042;7.584;2022-07-29T10:30:46;12.13;;;2.80;;
26504;SDS011;19493;48.042;7.584;2022-07-29T10:44:40;5.55;;;2.15;;
26504;SDS011;19493;48.042;7.584;2022-07-29T10:47:07;8.52;;;2.20;;
26504;SDS011;19493;48.042;7.584;2022-07-29T10:52:23;4.00;;;1.95;;
26504;SDS011;19493;48.042;7.584;2022-07-29T10:54:52;4.13;;;1.70;;
26504;SDS011;19493;48.042;7.584;2022-07-29T11:05:00;10.32;;;1.83;;
26504;SDS011;19493;48.042;7.584;2022-07-29T11:07:30;5.70;;;2.00;;
26504;SDS011;19493;48.042;7.584;2022-07-29T11:15:09;9.07;;;1.90;;
26504;SDS011;19493;48.042;7.584;2022-07-29T11:23:27;4.95;;;1.48;;
26504;SDS011;19493;48.042;7.584;2022-07-29T11:31:16;6.53;;;2.22;;
26504;SDS011;19493;48.042;7.584;2022-07-29T11:33:44;11.18;;;3.00;;
26504;SDS011;19493;48.042;7.584;2022-07-29T11:36:11;9.65;;;2.25;;
26504;SDS011;19493;48.042;7.584;2022-07-29T11:38:39;10.35;;;2.08;;
26504;SDS011;19493;48.042;7.584;2022-07-29T11:49:24;4.95;;;1.92;;
26504;SDS011;19493;48.042;7.584;2022-07-29T11:54:24;8.05;;;1.95;;
26504;SDS011;19493;48.042;7.584;2022-07-29T11:56:54;5.88;;;1.92;;
26504;SDS011;19493;48.042;7.584;2022-07-29T11:59:20;8.23;;;2.58;;
26504;SDS011;19493;48.042;7.584;2022-07-29T12:01:56;5.07;;;1.70;;
26504;SDS011;19493;48.042;7.584;2022-07-29T12:04:22;9.40;;;2.58;;
26504;SDS011;19493;48.042;7.584;2022-07-29T12:06:51;7.63;;;2.20;;
26504;SDS011;19493;48.042;7.584;2022-07-29T12:09:19;4.97;;;2.15;;
26504;SDS011;19493;48.042;7.584;2022-07-29T12:11:46;13.35;;;3.50;;
26504;SDS011;19493;48.042;7.584;2022-07-29T12:14:27;9.65;;;2.20;;
26504;SDS011;19493;48.042;7.584;2022-07-29T12:16:57;3.83;;;1.88;;
